Time;durP1;ratioP1;P1;durP2;ratioP2;P2;SDS_P1;SDS_P2;PMS_P1;PMS_P2;Temp;Humidity;BMP_temperature;BMP_pressure;BME280_temperature;BME280_humidity;BME280_pressure;Samples;Min_cycle;Max_cycle;Signal;HPM_P1;HPM_P2
2022/10/12 00:01:29;;;;;;;23.88;13.32;;;;;;;6.63;100.00;102420.25;5097705;28;20032;-59
2022/10/12 00:03:54;;;;;;;23.90;13.65;;;;;;;6.53;100.00;102413.19;5104207;27;20033;-59
2022/10/12 00:06:22;;;;;;;22.70;13.80;;;;;;;6.25;100.00;102364.97;5092540;28;20032;-60
2022/10/12 00:08:49;;;;;;;25.20;12.98;;;;;;;6.49;100.00;102421.88;5108958;28;20043;-60
2022/10/12 00:11:18;;;;;;;20.15;13.05;;;;;;;6.07;100.00;102349.97;5096075;28;20110;-59
2022/10/12 00:13:44;;;;;;;25.10;13.80;;;;;;;6.18;100.00;102379.75;5105440;28;20153;-60
2022/10/12 00:16:11;;;;;;;24.23;13.45;;;;;;;6.03;100.00;102355.19;5103176;28;20055;-59
2022/10/12 00:18:37;;;;;;;24.55;13.85;;;;;;;5.95;100.00;102356.84;5098013;28;20035;-60
2022/10/12 00:21:11;;;;;;;25.63;13.23;;;;;;;6.28;100.00;102424.28;5108921;28;20043;-56
2022/10/12 00:23:37;;;;;;;24.52;12.60;;;;;;;5.64;100.00;102322.50;5097042;28;20054;-59
2022/10/12 00:26:05;;;;;;;22.77;13.57;;;;;;;5.92;100.00;102372.50;5101197;28;20028;-57
2022/10/12 00:28:31;;;;;;;25.45;13.35;;;;;;;6.08;100.00;102417.09;5104742;28;20180;-60
2022/10/12 00:30:56;;;;;;;21.30;13.40;;;;;;;5.77;100.00;102367.06;5095687;28;20078;-56
2022/10/12 00:33:22;;;;;;;19.75;13.20;;;;;;;5.84;100.00;102389.78;5106892;28;20036;-60
2022/10/12 00:35:47;;;;;;;22.88;13.07;;;;;;;5.98;100.00;102417.00;5100164;28;20386;-59
2022/10/12 00:38:12;;;;;;;28.25;14.60;;;;;;;5.94;100.00;102417.81;5101214;28;20059;-58
2022/10/12 00:40:38;;;;;;;21.88;12.45;;;;;;;5.84;100.00;102406.31;5107047;28;20102;-59
2022/10/12 00:43:03;;;;;;;22.10;13.40;;;;;;;5.85;100.00;102408.13;5095315;28;20036;-60
2022/10/12 00:45:28;;;;;;;23.00;13.73;;;;;;;5.84;100.00;102418.53;5107198;28;20090;-59
2022/10/12 00:47:58;;;;;;;23.05;13.57;;;;;;;5.34;100.00;102342.16;5100789;28;20032;-60
2022/10/12 00:50:27;;;;;;;23.17;13.77;;;;;;;5.38;100.00;102354.38;5099323;28;20059;-57
2022/10/12 00:53:11;;;;;;;26.58;13.57;;;;;;;5.26;100.00;102346.38;5108497;28;20085;-60
2022/10/12 00:55:39;;;;;;;21.15;14.02;;;;;;;5.60;100.00;102421.72;5098087;28;20066;-60
2022/10/12 00:58:07;;;;;;;27.38;14.60;;;;;;;5.20;100.00;102344.56;5101799;28;20035;-57
2022/10/12 01:00:33;;;;;;;24.02;13.73;;;;;;;5.27;100.00;102371.66;5104955;28;20027;-58
2022/10/12 01:02:58;;;;;;;26.70;13.65;;;;;;;5.48;100.00;102403.28;5095546;28;20036;-59
2022/10/12 01:05:24;;;;;;;24.65;14.52;;;;;;;5.20;100.00;102352.41;5106847;28;20177;-59
2022/10/12 01:07:49;;;;;;;28.80;14.60;;;;;;;5.12;100.00;102338.38;5099703;28;20075;-59
2022/10/12 01:10:15;;;;;;;25.92;15.45;;;;;;;5.48;100.00;102405.88;5099533;28;20536;-58
2022/10/12 01:12:42;;;;;;;23.70;13.40;;;;;;;5.04;100.00;102346.13;5110966;28;20036;-60
2022/10/12 01:15:08;;;;;;;26.88;14.45;;;;;;;5.45;100.00;102409.34;5098289;28;20032;-60
2022/10/12 01:18:09;;;;;;;24.65;14.23;;;;;;;5.44;100.00;102404.06;5110094;28;20028;-58
2022/10/12 01:20:58;;;;;;;24.07;13.53;;;;;;;5.41;100.00;102397.09;5108680;28;20035;-59
2022/10/12 01:23:27;;;;;;;22.80;13.57;;;;;;;5.36;100.00;102398.75;5082883;28;20551;-59
2022/10/12 01:26:18;;;;;;;25.35;13.85;;;;;;;5.35;100.00;102399.59;5106067;28;20065;-59
2022/10/12 01:28:52;;;;;;;21.58;13.85;;;;;;;5.32;100.00;102388.25;5109998;28;20027;-57
2022/10/12 01:31:46;;;;;;;29.35;14.30;;;;;;;5.29;100.00;102394.31;5082337;28;20019;-60
2022/10/12 01:34:32;;;;;;;26.27;14.32;;;;;;;5.29;100.00;102409.09;5104852;28;20081;-60
2022/10/12 01:37:04;;;;;;;27.42;13.70;;;;;;;5.23;100.00;102381.16;5111022;28;20024;-60
2022/10/12 01:39:34;;;;;;;21.88;14.65;;;;;;;4.85;100.00;102330.16;5095251;28;20031;-59
2022/10/12 01:42:03;;;;;;;25.33;14.70;;;;;;;5.16;100.00;102381.06;5104657;28;20562;-57
2022/10/12 01:44:29;;;;;;;23.50;14.30;;;;;;;5.22;100.00;102389.00;5100651;28;20035;-60
2022/10/12 01:46:55;;;;;;;24.65;13.63;;;;;;;5.20;100.00;102383.72;5112069;28;20031;-59
2022/10/12 01:49:22;;;;;;;24.88;13.82;;;;;;;5.02;100.00;102349.56;5099134;28;20115;-53
2022/10/12 01:52:09;;;;;;;22.25;13.82;;;;;;;5.13;100.00;102392.34;5107726;28;20034;-59
2022/10/12 01:54:58;;;;;;;22.58;13.50;;;;;;;4.72;100.00;102321.28;5109665;28;20088;-56
2022/10/12 01:57:39;;;;;;;24.52;13.38;;;;;;;5.08;100.00;102376.59;5083853;28;20040;-59
2022/10/12 02:00:09;;;;;;;20.73;14.23;;;;;;;4.67;100.00;102315.09;5105321;28;20028;-54
2022/10/12 02:02:47;;;;;;;21.85;13.50;;;;;;;5.04;100.00;102387.00;5109311;28;20107;-58
2022/10/12 02:05:27;;;;;;;23.55;14.18;;;;;;;5.03;100.00;102380.00;5095296;28;20107;-58
2022/10/12 02:08:25;;;;;;;26.17;14.70;;;;;;;4.99;100.00;102366.03;5103354;28;20035;-59
2022/10/12 02:10:53;;;;;;;23.33;14.50;;;;;;;5.01;100.00;102373.91;5097274;28;20028;-58
2022/10/12 02:13:19;;;;;;;19.88;13.55;;;;;;;5.00;100.00;102370.41;5080480;28;20043;-58
2022/10/12 02:15:47;;;;;;;22.92;13.40;;;;;;;4.63;100.00;102308.09;5106381;28;20096;-58
2022/10/12 02:18:16;;;;;;;30.15;15.07;;;;;;;4.98;100.00;102369.50;5106187;28;20589;-57
2022/10/12 02:20:41;;;;;;;24.60;14.52;;;;;;;4.95;100.00;102355.53;5098164;28;20085;-59
2022/10/12 02:23:07;;;;;;;20.05;14.40;;;;;;;4.92;100.00;102353.75;5108756;28;20143;-59
2022/10/12 02:25:33;;;;;;;27.92;14.13;;;;;;;4.80;100.00;102337.91;5098756;28;20120;-59
2022/10/12 02:28:03;;;;;;;24.95;14.30;;;;;;;4.79;100.00;102332.66;5104148;28;20104;-58
2022/10/12 02:30:34;;;;;;;24.30;15.30;;;;;;;4.90;100.00;102354.59;5094871;28;20032;-60
2022/10/12 02:33:26;;;;;;;23.65;14.35;;;;;;;4.90;100.00;102357.22;5109735;28;20036;-59
2022/10/12 02:35:58;;;;;;;20.63;13.55;;;;;;;4.85;100.00;102346.69;5101545;28;20074;-61
2022/10/12 02:38:31;;;;;;;25.95;14.18;;;;;;;4.37;100.00;102273.81;5100454;28;20036;-59
2022/10/12 02:41:01;;;;;;;23.40;13.52;;;;;;;4.83;100.00;102357.94;5109904;28;20035;-56
2022/10/12 02:43:31;;;;;;;30.27;14.27;;;;;;;4.48;100.00;102294.81;5097637;28;20027;-61
2022/10/12 02:45:58;;;;;;;27.42;15.40;;;;;;;4.77;100.00;102344.81;5105452;28;20074;-58
2022/10/12 02:48:23;;;;;;;21.85;13.52;;;;;;;4.38;100.00;102279.88;5107085;28;20027;-60
2022/10/12 02:50:51;;;;;;;26.55;15.40;;;;;;;4.35;100.00;102279.84;5096520;28;20040;-60
2022/10/12 02:53:17;;;;;;;21.75;14.35;;;;;;;4.63;100.00;102328.97;5109648;28;20028;-61
2022/10/12 02:55:53;;;;;;;22.27;13.88;;;;;;;4.72;100.00;102343.88;5099834;28;20036;-58
2022/10/12 02:58:18;;;;;;;23.95;14.13;;;;;;;4.49;100.00;102309.63;5102195;27;20029;-57
2022/10/12 03:00:44;;;;;;;29.23;13.63;;;;;;;4.51;100.00;102315.72;5091189;28;20085;-60
2022/10/12 03:03:09;;;;;;;31.65;14.88;;;;;;;4.69;100.00;102336.88;5095911;28;20036;-58
2022/10/12 03:05:34;;;;;;;24.83;15.07;;;;;;;4.61;100.00;102321.97;5107941;28;20119;-60
2022/10/12 03:08:00;;;;;;;22.92;14.18;;;;;;;4.66;100.00;102326.41;5103315;28;20039;-60
2022/10/12 03:10:25;;;;;;;27.55;13.98;;;;;;;4.59;100.00;102321.94;5101408;28;20064;-60
2022/10/12 03:12:50;;;;;;;27.90;14.55;;;;;;;4.66;100.00;102336.84;5125992;27;20093;-60
2022/10/12 03:15:16;;;;;;;29.02;14.98;;;;;;;4.38;100.00;102291.19;5096917;28;20588;-60
2022/10/12 03:17:41;;;;;;;26.15;14.27;;;;;;;4.30;100.00;102271.06;5106787;28;20032;-59
2022/10/12 03:20:07;;;;;;;23.02;14.30;;;;;;;4.27;100.00;102256.25;5103779;28;20160;-60
2022/10/12 03:22:32;;;;;;;22.73;14.27;;;;;;;4.67;100.00;102325.53;5098001;28;20044;-58
2022/10/12 03:24:59;;;;;;;22.42;14.85;;;;;;;4.58;100.00;102309.78;5108822;28;20031;-60
2022/10/12 03:27:24;;;;;;;24.27;15.05;;;;;;;4.53;100.00;102300.97;5096692;28;20195;-61
2022/10/12 03:29:50;;;;;;;26.55;14.52;;;;;;;4.29;100.00;102254.53;5105387;27;20059;-59
2022/10/12 03:32:15;;;;;;;29.23;15.75;;;;;;;4.24;100.00;102244.91;5104774;28;20084;-58
2022/10/12 03:34:40;;;;;;;25.25;15.32;;;;;;;4.73;100.00;102340.44;5097995;28;20402;-57
2022/10/12 03:37:06;;;;;;;22.88;14.25;;;;;;;4.72;100.00;102331.72;5108819;28;20035;-61
2022/10/12 03:39:31;;;;;;;17.73;13.27;;;;;;;3.97;100.00;102199.31;5098938;28;20031;-58
2022/10/12 03:41:56;;;;;;;25.48;14.95;;;;;;;4.70;100.00;102340.38;5104464;28;20471;-60
2022/10/12 03:44:21;;;;;;;25.00;14.70;;;;;;;4.67;100.00;102335.97;5104075;28;20038;-60
2022/10/12 03:46:47;;;;;;;27.90;14.73;;;;;;;4.65;100.00;102331.59;5097116;28;20039;-60
2022/10/12 03:49:12;;;;;;;22.88;14.65;;;;;;;4.61;100.00;102329.81;5109521;28;20096;-59
2022/10/12 03:51:37;;;;;;;22.42;15.30;;;;;;;4.15;100.00;102249.97;5099044;28;20382;-57
2022/10/12 03:54:03;;;;;;;26.05;14.88;;;;;;;4.27;100.00;102278.84;5103151;28;20032;-60
2022/10/12 03:56:28;;;;;;;27.85;15.50;;;;;;;4.56;100.00;102334.94;5106392;28;20046;-59
2022/10/12 03:58:53;;;;;;;24.63;14.40;;;;;;;4.52;100.00;102338.34;5096225;28;20028;-60
2022/10/12 04:01:19;;;;;;;24.55;16.10;;;;;;;4.26;100.00;102288.38;5107864;28;20507;-59
2022/10/12 04:03:44;;;;;;;26.58;15.63;;;;;;;4.08;100.00;102263.75;5099861;28;20031;-58
2022/10/12 04:06:09;;;;;;;22.42;15.15;;;;;;;4.46;100.00;102325.22;5101883;28;20032;-60
2022/10/12 04:08:35;;;;;;;30.65;15.00;;;;;;;4.49;100.00;102336.56;5102094;28;20399;-59
2022/10/12 04:11:00;;;;;;;28.88;17.23;;;;;;;4.48;100.00;102328.72;5109293;28;20035;-62
2022/10/12 04:13:25;;;;;;;25.55;17.17;;;;;;;4.46;100.00;102338.25;5095855;28;20396;-59
2022/10/12 04:15:51;;;;;;;21.73;15.70;;;;;;;4.42;100.00;102318.19;5104653;28;20035;-59
2022/10/12 04:18:16;;;;;;;28.27;17.00;;;;;;;4.27;100.00;102282.31;5104229;28;20045;-59
2022/10/12 04:20:41;;;;;;;26.73;17.30;;;;;;;4.07;100.00;102248.97;5097476;28;20467;-59
2022/10/12 04:23:06;;;;;;;25.40;17.55;;;;;;;4.57;100.00;102327.97;5109161;28;20082;-61
2022/10/12 04:25:32;;;;;;;31.55;17.02;;;;;;;4.15;100.00;102257.78;5079849;28;20035;-59
2022/10/12 04:27:57;;;;;;;26.95;17.23;;;;;;;4.21;100.00;102266.59;5103656;28;20036;-58
2022/10/12 04:30:23;;;;;;;27.45;16.95;;;;;;;4.16;100.00;102263.03;5104672;28;20421;-60
2022/10/12 04:32:48;;;;;;;28.98;17.10;;;;;;;3.85;100.00;102199.09;5096283;28;20062;-62
2022/10/12 04:35:13;;;;;;;27.13;17.90;;;;;;;4.49;100.00;102302.66;5108717;28;20035;-59
2022/10/12 04:37:39;;;;;;;29.52;17.05;;;;;;;4.19;100.00;102252.66;5098453;28;20095;-61
2022/10/12 04:40:04;;;;;;;28.88;17.45;;;;;;;4.53;100.00;102307.06;5102526;28;20058;-59
2022/10/12 04:42:30;;;;;;;26.98;17.73;;;;;;;4.59;100.00;102303.69;5104498;28;20044;-60
2022/10/12 04:44:55;;;;;;;25.60;17.48;;;;;;;4.42;100.00;102281.69;5095129;28;20041;-61
2022/10/12 04:47:21;;;;;;;29.33;17.95;;;;;;;4.64;100.00;102320.25;5106727;28;20458;-58
2022/10/12 04:49:46;;;;;;;24.05;17.50;;;;;;;4.65;100.00;102303.78;5099204;28;20039;-61
2022/10/12 04:52:11;;;;;;;29.75;17.35;;;;;;;4.69;100.00;102309.91;5101235;28;20042;-59
2022/10/12 04:54:36;;;;;;;25.95;18.60;;;;;;;4.60;100.00;102284.59;5106608;28;20034;-61
2022/10/12 04:57:02;;;;;;;25.55;16.95;;;;;;;4.71;100.00;102301.25;5095458;28;20036;-60
2022/10/12 04:59:27;;;;;;;25.15;17.05;;;;;;;4.72;100.00;102297.81;5098146;28;20532;-60
2022/10/12 05:01:53;;;;;;;27.90;17.13;;;;;;;4.38;100.00;102230.34;5103814;28;20036;-60
2022/10/12 05:04:18;;;;;;;25.98;16.63;;;;;;;4.31;100.00;102213.75;5103572;28;20522;-60
2022/10/12 05:06:44;;;;;;;26.83;17.23;;;;;;;4.78;100.00;102287.47;5074987;28;20082;-59
2022/10/12 05:09:09;;;;;;;24.77;16.92;;;;;;;4.45;100.00;102229.59;5107723;28;20115;-61
2022/10/12 05:11:34;;;;;;;25.13;15.95;;;;;;;4.68;100.00;102271.63;5096607;28;20055;-60
2022/10/12 05:14:00;;;;;;;27.17;16.48;;;;;;;4.81;100.00;102300.56;5102625;28;20040;-61
2022/10/12 05:16:25;;;;;;;21.33;16.40;;;;;;;4.75;100.00;102278.72;5104700;28;20220;-60
2022/10/12 05:18:50;;;;;;;26.77;16.98;;;;;;;4.30;100.00;102208.50;5095292;28;20032;-59
2022/10/12 05:21:16;;;;;;;25.40;16.00;;;;;;;4.69;100.00;102276.00;5108227;28;20047;-59
2022/10/12 05:23:41;;;;;;;30.48;17.85;;;;;;;4.70;100.00;102283.00;5113559;28;20056;-59
2022/10/12 05:26:06;;;;;;;23.95;16.20;;;;;;;4.41;100.00;102252.13;5101523;28;20379;-61
2022/10/12 05:28:32;;;;;;;22.83;16.52;;;;;;;4.33;100.00;102253.75;5104358;28;20114;-61
2022/10/12 05:30:57;;;;;;;24.25;16.98;;;;;;;4.21;100.00;102234.41;5093535;28;20040;-58
2022/10/12 05:33:23;;;;;;;26.00;16.20;;;;;;;4.60;100.00;102309.78;5105819;28;20051;-60
2022/10/12 05:35:48;;;;;;;21.92;15.35;;;;;;;4.55;100.00;102314.94;5098735;28;20537;-60
2022/10/12 05:38:14;;;;;;;25.40;16.95;;;;;;;4.39;100.00;102274.69;5100569;28;20085;-60
2022/10/12 05:40:39;;;;;;;27.05;17.85;;;;;;;4.47;100.00;102304.38;5106467;28;20513;-57
2022/10/12 05:43:04;;;;;;;25.73;17.15;;;;;;;4.46;100.00;102292.22;5094932;28;20039;-60
2022/10/12 05:45:30;;;;;;;27.00;17.30;;;;;;;4.45;100.00;102294.78;5106401;28;20393;-60
2022/10/12 05:47:55;;;;;;;22.92;17.27;;;;;;;4.41;100.00;102290.34;5093888;28;20432;-59
2022/10/12 05:50:20;;;;;;;24.55;17.27;;;;;;;4.42;100.00;102297.34;5103555;28;20474;-60
2022/10/12 05:52:46;;;;;;;25.33;17.42;;;;;;;4.00;100.00;102237.56;5094511;28;20036;-60
2022/10/12 05:55:12;;;;;;;31.75;16.60;;;;;;;4.08;100.00;102246.41;5108340;28;20027;-60
2022/10/12 05:57:37;;;;;;;30.77;17.40;;;;;;;4.34;100.00;102286.78;5098510;28;20088;-60
2022/10/12 06:00:04;;;;;;;27.20;16.58;;;;;;;3.97;100.00;102227.97;5105480;28;20039;-60
2022/10/12 06:02:30;;;;;;;24.45;16.00;;;;;;;4.37;100.00;102299.00;5108454;28;20375;-58
2022/10/12 06:04:55;;;;;;;24.90;16.77;;;;;;;4.35;100.00;102300.72;5098120;28;20093;-60
2022/10/12 06:07:20;;;;;;;25.40;16.30;;;;;;;4.35;100.00;102291.13;5098706;28;20486;-59
2022/10/12 06:09:47;;;;;;;28.02;17.10;;;;;;;4.25;100.00;102285.75;5107732;28;20490;-61
2022/10/12 06:12:14;;;;;;;30.48;17.67;;;;;;;4.17;100.00;102271.72;5105849;28;20088;-61
2022/10/12 06:14:39;;;;;;;25.20;17.08;;;;;;;4.35;100.00;102300.72;5100056;28;20042;-60
2022/10/12 06:17:05;;;;;;;24.02;16.63;;;;;;;4.36;100.00;102300.72;5109835;28;20032;-60
2022/10/12 06:19:30;;;;;;;27.08;17.33;;;;;;;4.30;100.00;102277.16;5099684;28;20470;-58
2022/10/12 06:21:56;;;;;;;27.08;18.35;;;;;;;4.41;100.00;102285.13;5106177;28;20032;-61
2022/10/12 06:24:21;;;;;;;23.05;17.25;;;;;;;4.47;100.00;102287.84;5106587;28;20053;-62
2022/10/12 06:26:47;;;;;;;25.42;17.05;;;;;;;4.09;100.00;102213.38;5098787;28;20039;-59
2022/10/12 06:29:12;;;;;;;21.67;16.05;;;;;;;4.53;100.00;102283.59;5109926;28;20094;-60
2022/10/12 06:31:38;;;;;;;29.55;17.30;;;;;;;4.64;100.00;102282.91;5099514;28;20097;-61
2022/10/12 06:34:04;;;;;;;33.58;18.23;;;;;;;4.71;100.00;102293.44;5104445;28;20475;-59
2022/10/12 06:36:29;;;;;;;25.92;18.30;;;;;;;4.54;100.00;102230.59;5092808;28;20110;-57
2022/10/12 06:38:55;;;;;;;28.08;17.20;;;;;;;4.90;100.00;102282.38;5110007;28;20035;-59
2022/10/12 06:41:20;;;;;;;24.98;17.48;;;;;;;4.98;100.00;102280.78;5097812;28;20335;-60
2022/10/12 06:43:45;;;;;;;24.85;17.45;;;;;;;4.98;100.00;102266.84;5106941;28;20108;-62
2022/10/12 06:46:10;;;;;;;27.40;18.02;;;;;;;4.47;100.00;102157.47;5103661;28;20043;-60
2022/10/12 06:48:36;;;;;;;27.95;18.02;;;;;;;5.12;100.00;102247.03;5098656;28;20067;-61
2022/10/12 06:51:01;;;;;;;29.25;19.75;;;;;;;4.95;100.00;102199.84;5099427;28;20595;-60
2022/10/12 06:53:29;;;;;;;29.00;19.65;;;;;;;5.22;100.00;102241.06;5080436;28;20036;-61
2022/10/12 06:55:55;;;;;;;36.28;20.25;;;;;;;5.60;100.00;102270.22;5079460;28;20167;-59
2022/10/12 06:58:21;;;;;;;28.77;18.30;;;;;;;5.62;100.00;102258.91;5084305;28;20547;-60
2022/10/12 07:00:46;;;;;;;27.67;20.23;;;;;;;5.94;100.00;102287.13;5092612;28;20036;-60
2022/10/12 07:03:13;;;;;;;26.25;20.35;;;;;;;6.10;100.00;102270.75;5104409;28;20054;-60
2022/10/12 07:05:38;;;;;;;33.65;20.02;;;;;;;6.10;100.00;102247.22;5102371;28;20033;-61
2022/10/12 07:08:03;;;;;;;29.27;18.85;;;;;;;6.47;100.00;102284.97;5103337;28;20080;-63
2022/10/12 07:10:29;;;;;;;26.42;17.95;;;;;;;6.54;100.00;102279.78;5105595;28;20040;-59
2022/10/12 07:12:54;;;;;;;27.42;16.42;;;;;;;6.16;100.00;102211.50;5109050;28;20493;-61
2022/10/12 07:15:20;;;;;;;25.35;17.13;;;;;;;6.52;100.00;102285.88;5097309;28;20031;-57
2022/10/12 07:17:45;;;;;;;27.75;17.80;;;;;;;6.17;100.00;102228.09;5106487;28;20532;-60
2022/10/12 07:20:10;;;;;;;33.15;18.77;;;;;;;6.15;100.00;102243.78;5104150;28;20131;-59
2022/10/12 07:22:36;;;;;;;28.85;18.15;;;;;;;6.30;100.00;102276.13;5108642;28;20043;-60
2022/10/12 07:25:02;;;;;;;26.52;18.00;;;;;;;5.77;100.00;102195.50;5097165;28;20085;-62
2022/10/12 07:27:27;;;;;;;30.02;18.88;;;;;;;5.64;100.00;102181.44;5110272;28;20138;-60
2022/10/12 07:29:52;;;;;;;32.15;19.67;;;;;;;5.78;100.00;102209.44;5105150;28;20070;-60
2022/10/12 07:32:18;;;;;;;34.67;20.83;;;;;;;5.77;100.00;102210.28;5104869;28;20419;-60
2022/10/12 07:34:43;;;;;;;32.08;20.27;;;;;;;6.21;100.00;102279.53;5098141;28;20136;-60
2022/10/12 07:37:09;;;;;;;31.10;19.65;;;;;;;5.87;100.00;102210.41;5108492;28;20091;-61
2022/10/12 07:39:34;;;;;;;37.22;21.10;;;;;;;6.32;100.00;102285.72;5079423;28;20474;-60
2022/10/12 07:41:59;;;;;;;35.78;21.80;;;;;;;6.43;100.00;102280.56;5102831;28;20040;-59
2022/10/12 07:44:25;;;;;;;33.30;21.45;;;;;;;6.55;100.00;102275.44;5085827;28;20410;-60
2022/10/12 07:46:50;;;;;;;36.15;22.25;;;;;;;6.66;100.00;102292.06;5072030;28;20117;-61
2022/10/12 07:49:15;;;;;;;32.10;21.92;;;;;;;6.60;100.00;102242.31;5081733;28;20039;-63
2022/10/12 07:51:42;;;;;;;33.38;20.85;;;;;;;6.92;100.00;102279.16;5087832;28;20127;-60
2022/10/12 07:54:07;;;;;;;35.10;22.65;;;;;;;7.06;100.00;102270.53;5082752;28;20035;-59
2022/10/12 07:56:33;;;;;;;41.60;22.77;;;;;;;7.22;100.00;102274.94;5097417;28;20032;-59
2022/10/12 07:58:58;;;;;;;34.03;22.92;;;;;;;7.27;100.00;102257.50;5106155;28;20123;-60
2022/10/12 08:01:26;;;;;;;37.08;24.08;;;;;;;7.16;100.00;102224.28;5077090;28;20467;-60
2022/10/12 08:03:51;;;;;;;29.08;20.60;;;;;;;7.60;100.00;102292.53;5084584;28;20082;-59
2022/10/12 08:06:19;;;;;;;36.58;21.13;;;;;;;7.54;100.00;102254.09;5084020;28;20028;-59
2022/10/12 08:08:45;;;;;;;33.05;21.27;;;;;;;7.47;100.00;102233.13;5085378;28;20039;-59
2022/10/12 08:11:11;;;;;;;34.88;21.52;;;;;;;7.77;100.00;102262.00;5099030;28;20036;-59
2022/10/12 08:13:38;;;;;;;28.13;20.88;;;;;;;7.62;100.00;102231.38;5098716;28;20036;-62
2022/10/12 08:16:05;;;;;;;27.98;20.85;;;;;;;8.13;100.00;102297.88;5105194;28;20118;-58
2022/10/12 08:18:30;;;;;;;33.50;20.45;;;;;;;8.23;100.00;102295.25;5094172;28;20032;-60
2022/10/12 08:20:56;;;;;;;32.42;20.20;;;;;;;8.00;100.00;102226.19;5105295;28;20089;-59
2022/10/12 08:23:21;;;;;;;30.73;18.90;;;;;;;8.29;100.00;102252.47;5100668;28;20044;-60
2022/10/12 08:25:54;;;;;;;29.50;17.38;;;;;;;8.20;100.00;102200.81;5114632;27;20039;-57
2022/10/12 08:28:20;;;;;;;25.10;16.33;;;;;;;8.62;100.00;102251.53;5123686;27;20119;-61
2022/10/12 08:30:45;;;;;;;22.88;14.63;;;;;;;8.89;100.00;102268.09;5093543;28;20114;-59
2022/10/12 08:33:12;;;;;;;27.27;14.55;;;;;;;9.10;100.00;102287.28;5100572;28;20047;-58
2022/10/12 08:35:38;;;;;;;25.00;14.13;;;;;;;8.92;100.00;102212.94;5099122;28;20494;-57
2022/10/12 08:38:04;;;;;;;22.10;13.52;;;;;;;9.15;100.00;102209.34;5093697;28;20028;-59
2022/10/12 08:40:30;;;;;;;20.10;12.15;;;;;;;9.85;100.00;102262.38;5087325;28;20051;-58
2022/10/12 08:43:12;;;;;;;17.27;10.15;;;;;;;10.50;100.00;102283.81;5092456;28;20126;-58
2022/10/12 08:45:51;;;;;;;15.75;9.75;;;;;;;11.08;100.00;102276.16;5097165;28;20032;-56
2022/10/12 08:48:49;;;;;;;16.60;8.65;;;;;;;11.68;100.00;102276.25;5107907;28;20498;-58
2022/10/12 08:51:17;;;;;;;15.57;7.63;;;;;;;12.02;100.00;102223.91;5098331;28;20122;-58
2022/10/12 08:54:04;;;;;;;13.57;7.18;;;;;;;12.66;100.00;102213.94;5080457;28;20131;-57
2022/10/12 08:56:30;;;;;;;13.95;6.75;;;;;;;13.77;100.00;102301.53;5104030;28;20036;-57
2022/10/12 08:58:55;;;;;;;15.77;6.28;;;;;;;13.94;100.00;102251.72;5095467;28;20077;-60
2022/10/12 09:01:45;;;;;;;13.82;6.85;;;;;;;14.70;100.00;102321.38;5101984;28;20497;-57
2022/10/12 09:04:38;;;;;;;16.05;7.43;;;;;;;15.02;100.00;102337.31;5088742;28;20031;-57
2022/10/12 09:07:13;;;;;;;12.30;7.32;;;;;;;15.02;100.00;102385.91;5089717;28;20035;-57
2022/10/12 09:09:38;;;;;;;12.55;6.57;;;;;;;15.09;100.00;102383.97;5089948;28;20038;-59
2022/10/12 09:12:04;;;;;;;10.48;5.93;;;;;;;15.56;100.00;102391.50;5091474;28;20032;-62
2022/10/12 09:14:35;;;;;;;10.68;6.22;;;;;;;15.92;100.00;102327.63;5090467;28;20086;-64
2022/10/12 09:17:01;;;;;;;12.30;5.30;;;;;;;16.89;100.00;102367.84;5090933;28;20105;-63
2022/10/12 09:19:33;;;;;;;8.30;4.60;;;;;;;17.96;100.00;102409.19;5090419;28;20494;-64
2022/10/12 09:22:00;;;;;;;12.38;6.10;;;;;;;18.22;100.00;102396.63;5089845;28;20056;-64
2022/10/12 09:24:27;;;;;;;9.52;5.32;;;;;;;18.37;100.00;102359.56;5089490;28;20231;-63
2022/10/12 09:26:58;;;;;;;13.93;5.95;;;;;;;19.15;100.00;102418.53;5089271;28;20040;-63
2022/10/12 09:29:29;;;;;;;10.63;5.55;;;;;;;19.42;100.00;102358.63;5091076;28;20036;-63
2022/10/12 09:32:13;;;;;;;12.75;5.60;;;;;;;20.26;100.00;102419.75;5092452;28;20463;-63
2022/10/12 09:34:38;;;;;;;9.65;5.57;;;;;;;20.19;100.00;102367.47;5097524;28;20057;-64
2022/10/12 09:37:04;;;;;;;12.00;5.47;;;;;;;20.74;100.00;102412.00;5112425;28;20041;-64
2022/10/12 09:39:33;;;;;;;9.07;5.50;;;;;;;20.75;100.00;102354.84;5113294;28;20122;-62
2022/10/12 09:41:58;;;;;;;12.32;5.25;;;;;;;20.82;100.00;102402.72;5113720;28;20432;-64
2022/10/12 09:44:34;;;;;;;12.40;5.78;;;;;;;20.55;100.00;102346.97;5114257;28;20031;-64
2022/10/12 09:47:05;;;;;;;14.15;5.07;;;;;;;21.21;100.00;102379.31;5114467;28;20032;-64
2022/10/12 09:49:39;;;;;;;;;;;;;;;21.19;100.00;102386.56;5114356;28;20032;-62
2022/10/12 09:52:05;;;;;;;12.35;4.55;;;;;;;21.15;100.00;102334.97;5115852;28;19915;-63
2022/10/12 09:54:31;;;;;;;13.40;4.97;;;;;;;21.26;100.00;102337.94;5096511;28;20027;-63
2022/10/12 09:56:56;;;;;;;12.98;5.47;;;;;;;21.35;100.00;102331.22;5113285;28;20032;-62
2022/10/12 09:59:32;;;;;;;11.18;5.03;;;;;;;21.55;100.00;102331.00;5114579;27;20036;-63
2022/10/12 10:02:11;;;;;;;12.43;4.88;;;;;;;21.84;100.00;102364.22;5096985;28;20367;-63
2022/10/12 10:04:38;;;;;;;11.85;5.03;;;;;;;21.45;100.00;102303.00;5113420;28;20542;-63
2022/10/12 10:07:26;;;;;;;8.98;4.63;;;;;;;20.84;100.00;102296.47;5113220;28;20501;-65
2022/10/12 10:10:16;;;;;;;12.25;5.93;;;;;;;20.66;100.00;102344.66;5115124;28;20039;-64
2022/10/12 10:13:00;;;;;;;10.38;5.00;;;;;;;20.98;100.00;102328.72;5114904;28;20031;-64
2022/10/12 10:15:31;;;;;;;8.85;6.03;;;;;;;21.05;100.00;102335.47;5113013;28;20039;-63
2022/10/12 10:18:01;;;;;;;10.55;5.07;;;;;;;21.00;100.00;102263.44;5113724;28;20031;-63
2022/10/12 10:20:33;;;;;;;12.43;5.22;;;;;;;21.63;94.86;102318.03;5114462;28;20130;-63
2022/10/12 10:22:59;;;;;;;9.60;5.30;;;;;;;21.81;100.00;102313.47;5112742;28;20058;-64
2022/10/12 10:25:25;;;;;;;7.85;5.25;;;;;;;21.81;97.00;102265.22;5114104;28;20044;-62
2022/10/12 10:28:19;;;;;;;11.05;6.20;;;;;;;22.23;97.02;102272.66;5113504;28;20119;-64
2022/10/12 10:30:55;;;;;;;14.70;6.55;;;;;;;21.41;100.00;102295.19;5113751;28;20038;-62
2022/10/12 10:33:20;;;;;;;14.05;7.03;;;;;;;21.07;100.00;102296.13;5113766;28;20024;-62
2022/10/12 10:35:54;;;;;;;13.40;7.13;;;;;;;20.34;100.00;102246.44;5113795;28;20035;-63
2022/10/12 10:38:19;;;;;;;17.27;7.38;;;;;;;20.06;100.00;102241.56;5113101;28;20032;-62
2022/10/12 10:40:50;;;;;;;15.95;7.47;;;;;;;20.11;100.00;102231.50;5114699;28;20031;-64
2022/10/12 10:43:26;;;;;;;12.30;6.65;;;;;;;20.95;100.00;102229.84;5112228;28;20062;-63
2022/10/12 10:45:55;;;;;;;10.07;5.78;;;;;;;21.42;100.00;102284.41;5112397;28;20024;-62
2022/10/12 10:48:22;;;;;;;16.50;6.35;;;;;;;22.22;97.74;102279.84;5113974;28;20028;-64
2022/10/12 10:50:55;;;;;;;11.82;6.35;;;;;;;22.44;96.63;102287.50;5112608;28;20039;-63
2022/10/12 10:53:22;;;;;;;9.77;6.15;;;;;;;22.12;96.94;102241.13;5112839;28;20026;-62
2022/10/12 10:56:08;;;;;;;9.25;5.10;;;;;;;21.83;94.67;102226.66;5113693;27;20039;-62
2022/10/12 10:58:36;;;;;;;8.07;4.93;;;;;;;20.75;99.06;102178.25;5114461;28;20027;-60
2022/10/12 11:01:32;;;;;;;9.45;5.70;;;;;;;20.56;100.00;102284.50;5112889;28;20489;-64
2022/10/12 11:04:05;;;;;;;15.40;5.15;;;;;;;19.24;100.00;102241.94;5102387;28;20043;-63
2022/10/12 11:06:41;;;;;;;8.25;5.40;;;;;;;18.53;100.00;102237.19;5112312;28;20038;-63
2022/10/12 11:09:13;;;;;;;20.35;6.57;;;;;;;18.48;100.00;102292.47;5113298;28;20055;-61
2022/10/12 11:11:39;;;;;;;9.35;5.75;;;;;;;18.20;100.00;102266.09;5112981;28;20032;-61
2022/10/12 11:14:15;;;;;;;10.85;5.28;;;;;;;17.90;100.00;102216.72;5112232;28;20122;-61
2022/10/12 11:17:03;;;;;;;10.75;5.88;;;;;;;17.97;100.00;102271.50;5112310;28;20069;-61